Time;durP1;ratioP1;P1;durP2;ratioP2;P2;SDS_P1;SDS_P2;PMS_P1;PMS_P2;Temp;Humidity;BMP_temperature;BMP_pressure;BME280_temperature;BME280_humidity;BME280_pressure;Samples;Min_cycle;Max_cycle;Signal;HPM_P1;HPM_P2
2023/03/19 00:02:07;;;;;;;21.52;14.07;;;9.80;99.90;;;;;;5159315;27;20043;-77
2023/03/19 00:04:32;;;;;;;22.43;13.77;;;9.90;99.90;;;;;;5159186;27;20047;-76
2023/03/19 00:06:58;;;;;;;18.65;13.13;;;9.80;99.90;;;;;;5159091;27;20043;-77
2023/03/19 00:09:24;;;;;;;19.40;13.73;;;9.80;99.90;;;;;;5159395;27;20053;-76
2023/03/19 00:11:49;;;;;;;22.13;13.93;;;9.90;99.90;;;;;;5158864;27;20474;-76
2023/03/19 00:14:16;;;;;;;19.00;12.68;;;9.80;99.90;;;;;;5158999;27;20043;-78
2023/03/19 00:16:42;;;;;;;16.37;12.53;;;9.80;99.90;;;;;;5158595;27;20539;-77
2023/03/19 00:19:08;;;;;;;18.63;13.00;;;9.80;99.90;;;;;;5140329;27;20038;-77
2023/03/19 00:21:34;;;;;;;21.20;13.10;;;9.70;99.90;;;;;;5158620;27;20562;-78
2023/03/19 00:24:01;;;;;;;18.90;12.93;;;9.70;99.90;;;;;;5158547;27;20422;-76
2023/03/19 00:26:31;;;;;;;17.73;13.48;;;10.00;99.90;;;;;;5158703;27;20050;-78
2023/03/19 00:28:57;;;;;;;17.25;13.32;;;10.20;99.90;;;;;;5158741;27;20121;-77
2023/03/19 00:31:24;;;;;;;18.63;12.57;;;9.70;99.90;;;;;;5158692;27;20038;-76
2023/03/19 00:33:50;;;;;;;18.23;13.70;;;9.70;99.90;;;;;;5158949;27;20038;-76
2023/03/19 00:36:18;;;;;;;19.52;14.52;;;9.70;99.90;;;;;;5157168;27;20042;-78
2023/03/19 00:38:46;;;;;;;20.42;13.95;;;9.70;99.90;;;;;;5158474;27;20144;-82
2023/03/19 00:41:16;;;;;;;20.83;13.75;;;9.70;99.90;;;;;;5158332;27;20047;-76
2023/03/19 00:43:51;;;;;;;21.25;14.07;;;9.70;99.90;;;;;;5158186;27;20060;-76
2023/03/19 00:46:18;;;;;;;22.27;13.93;;;9.70;99.90;;;;;;5158332;27;20408;-77
2023/03/19 00:48:46;;;;;;;21.30;14.25;;;9.70;99.90;;;;;;5139899;27;20179;-78
2023/03/19 00:51:15;;;;;;;20.77;14.40;;;9.70;99.90;;;;;;5157995;27;20134;-78
2023/03/19 00:53:43;;;;;;;22.58;14.27;;;9.70;99.90;;;;;;5157691;27;20046;-77
2023/03/19 00:56:13;;;;;;;20.05;13.57;;;9.80;99.90;;;;;;5158198;27;20042;-78
2023/03/19 00:58:40;;;;;;;18.95;13.55;;;9.80;99.90;;;;;;5157210;27;20059;-77
2023/03/19 01:01:07;;;;;;;;;;;9.70;99.90;;;;;;5158700;27;20111;-79
2023/03/19 01:03:34;;;;;;;18.63;13.23;;;9.80;99.90;;;;;;5157764;27;19923;-77
2023/03/19 01:06:00;;;;;;;18.02;13.23;;;9.80;99.90;;;;;;5158327;27;20078;-78
2023/03/19 01:08:26;;;;;;;20.48;13.05;;;9.80;99.90;;;;;;5158095;27;20085;-80
2023/03/19 01:10:52;;;;;;;17.15;12.48;;;9.80;99.90;;;;;;5157730;27;20569;-78
2023/03/19 01:13:18;;;;;;;18.30;12.45;;;9.90;99.90;;;;;;5157730;27;20073;-77
2023/03/19 01:15:44;;;;;;;20.47;14.03;;;9.80;99.90;;;;;;5158301;27;20047;-79
2023/03/19 01:18:11;;;;;;;17.60;13.32;;;9.90;99.90;;;;;;5157773;27;20038;-77
2023/03/19 01:20:38;;;;;;;;;;;9.90;99.90;;;;;;5157888;27;20474;-77
2023/03/19 01:23:04;;;;;;;20.45;13.93;;;9.90;99.90;;;;;;5157727;27;19919;-76
2023/03/19 01:25:30;;;;;;;24.30;13.98;;;9.90;99.90;;;;;;5139405;27;20474;-76
2023/03/19 01:27:56;;;;;;;23.63;15.00;;;10.30;99.90;;;;;;5157627;27;20039;-79
2023/03/19 01:30:22;;;;;;;21.58;13.95;;;9.90;99.90;;;;;;5157995;27;20494;-79
2023/03/19 01:32:48;;;;;;;24.63;14.90;;;9.80;99.90;;;;;;5157409;27;20108;-78
2023/03/19 01:35:13;;;;;;;19.42;14.18;;;9.90;99.90;;;;;;5157398;27;20034;-78
2023/03/19 01:37:39;;;;;;;21.60;14.45;;;9.90;99.90;;;;;;5157220;27;20100;-78
2023/03/19 01:40:06;;;;;;;21.15;14.55;;;9.90;99.90;;;;;;5157316;27;20050;-80
2023/03/19 01:42:32;;;;;;;21.05;14.30;;;9.90;99.90;;;;;;5157136;27;20125;-80
2023/03/19 01:44:58;;;;;;;21.10;14.30;;;10.20;99.90;;;;;;5138798;27;20047;-78
2023/03/19 01:47:41;;;;;;;23.80;13.95;;;9.90;99.90;;;;;;5157240;27;20099;-78
2023/03/19 01:50:22;;;;;;;18.80;13.30;;;9.90;99.90;;;;;;5157058;27;20039;-79
2023/03/19 01:52:47;;;;;;;17.83;12.43;;;9.90;99.90;;;;;;5157337;27;20600;-79
2023/03/19 01:55:13;;;;;;;18.00;13.07;;;10.10;99.90;;;;;;5156963;27;20121;-78
2023/03/19 01:57:39;;;;;;;16.95;12.48;;;9.80;99.90;;;;;;5157142;27;20046;-78
2023/03/19 02:00:06;;;;;;;19.58;13.05;;;9.90;99.90;;;;;;5156978;27;20498;-80
2023/03/19 02:02:34;;;;;;;18.80;13.02;;;9.90;99.90;;;;;;5156860;27;20039;-80
2023/03/19 02:05:01;;;;;;;;;;;10.00;99.90;;;;;;5138663;27;20038;-77
2023/03/19 02:07:30;;;;;;;16.92;12.45;;;9.90;99.90;;;;;;5156740;27;19974;-78
2023/03/19 02:09:57;;;;;;;19.58;12.90;;;10.00;99.90;;;;;;5156336;27;20427;-80
2023/03/19 02:12:23;;;;;;;16.70;11.70;;;10.00;99.90;;;;;;5156624;27;20493;-77
2023/03/19 02:14:48;;;;;;;15.30;11.05;;;9.90;99.90;;;;;;5156637;27;20086;-79
2023/03/19 02:17:14;;;;;;;17.17;11.45;;;9.90;99.90;;;;;;5137604;27;20039;-80
2023/03/19 02:19:58;;;;;;;21.67;11.97;;;9.90;99.90;;;;;;5156673;27;20068;-78
2023/03/19 02:22:27;;;;;;;15.90;10.82;;;9.90;99.90;;;;;;5156426;27;20042;-78
2023/03/19 02:25:05;;;;;;;14.23;10.48;;;9.90;99.90;;;;;;5156472;27;20432;-80
2023/03/19 02:27:30;;;;;;;14.93;11.10;;;10.00;99.90;;;;;;5156605;27;20039;-79
2023/03/19 02:29:56;;;;;;;14.95;10.43;;;9.90;99.90;;;;;;5156348;27;20435;-78
2023/03/19 02:32:22;;;;;;;15.15;10.85;;;9.90;99.90;;;;;;5156242;27;20125;-79
2023/03/19 02:34:47;;;;;;;16.98;9.88;;;9.90;99.90;;;;;;5156309;27;20141;-81
2023/03/19 02:37:21;;;;;;;13.05;9.18;;;9.90;99.90;;;;;;5155946;27;20045;-81
2023/03/19 02:39:49;;;;;;;12.38;8.82;;;9.90;99.90;;;;;;5156174;27;20572;-79
2023/03/19 02:42:16;;;;;;;14.07;9.20;;;9.80;99.90;;;;;;5137624;27;20066;-80
2023/03/19 02:44:42;;;;;;;;;;;9.80;99.90;;;;;;5156485;27;20078;-81
2023/03/19 02:47:07;;;;;;;11.88;8.43;;;10.30;99.90;;;;;;5156033;27;19985;-78
2023/03/19 02:49:34;;;;;;;11.23;8.07;;;9.80;99.90;;;;;;5155918;27;20097;-80
2023/03/19 02:52:00;;;;;;;12.07;8.73;;;9.70;99.90;;;;;;5155906;27;20102;-80
2023/03/19 02:54:26;;;;;;;13.13;8.40;;;9.70;99.90;;;;;;5155963;27;20046;-77
2023/03/19 02:56:52;;;;;;;11.43;8.20;;;9.70;99.90;;;;;;5155652;27;20039;-78
2023/03/19 02:59:18;;;;;;;14.60;8.18;;;9.70;99.90;;;;;;5155665;27;20054;-78
2023/03/19 03:01:44;;;;;;;12.90;7.57;;;9.70;99.90;;;;;;5155747;27;20042;-80
2023/03/19 03:04:09;;;;;;;11.88;7.40;;;9.70;99.90;;;;;;5155441;27;20041;-79
2023/03/19 03:06:36;;;;;;;9.70;7.45;;;9.80;99.90;;;;;;5155688;27;20051;-80
2023/03/19 03:09:02;;;;;;;11.60;7.63;;;9.80;99.90;;;;;;5155610;27;20046;-78
2023/03/19 03:11:28;;;;;;;10.90;7.00;;;9.70;99.90;;;;;;5155610;27;20589;-80
2023/03/19 03:13:53;;;;;;;10.57;7.70;;;9.90;99.90;;;;;;5155615;27;20038;-78
2023/03/19 03:16:19;;;;;;;12.40;7.80;;;9.60;99.90;;;;;;5155255;27;20053;-80
2023/03/19 03:18:44;;;;;;;11.07;6.60;;;9.60;99.90;;;;;;5155424;27;20050;-81
2023/03/19 03:21:10;;;;;;;11.05;7.38;;;9.60;99.90;;;;;;5137415;27;20047;-78
2023/03/19 03:23:36;;;;;;;8.82;7.10;;;9.60;99.90;;;;;;5155351;27;20035;-78
2023/03/19 03:26:01;;;;;;;9.23;6.80;;;9.70;99.90;;;;;;5155508;27;20080;-79
2023/03/19 03:28:27;;;;;;;9.35;7.15;;;9.70;99.90;;;;;;5155356;27;20038;-80
2023/03/19 03:31:00;;;;;;;9.45;6.28;;;9.60;99.90;;;;;;5136951;27;20085;-79
2023/03/19 03:33:26;;;;;;;9.80;6.60;;;9.60;99.90;;;;;;5155204;27;20043;-81
2023/03/19 03:35:51;;;;;;;8.73;6.60;;;9.50;99.90;;;;;;5136987;27;20430;-80
2023/03/19 03:38:17;;;;;;;10.45;6.50;;;9.50;99.90;;;;;;5155566;27;20432;-79
2023/03/19 03:40:43;;;;;;;12.75;6.22;;;10.00;99.90;;;;;;5155289;27;20042;-80
2023/03/19 03:43:09;;;;;;;9.13;6.55;;;9.40;99.90;;;;;;5154876;27;20206;-78
2023/03/19 03:45:36;;;;;;;8.50;6.32;;;9.40;99.90;;;;;;5136984;27;20409;-80
2023/03/19 03:48:01;;;;;;;8.55;5.93;;;9.40;99.90;;;;;;5136837;27;20050;-81
2023/03/19 03:50:27;;;;;;;8.65;5.80;;;9.40;99.90;;;;;;5155199;27;20390;-78
2023/03/19 03:52:53;;;;;;;6.70;5.28;;;9.60;99.90;;;;;;5155317;27;20054;-79
2023/03/19 03:55:18;;;;;;;7.78;5.50;;;9.40;99.90;;;;;;5155271;27;20062;-78
2023/03/19 03:57:44;;;;;;;7.55;4.90;;;9.30;99.90;;;;;;5155086;27;20047;-80
2023/03/19 04:00:11;;;;;;;7.28;4.72;;;9.30;99.90;;;;;;5155059;27;20042;-80
2023/03/19 04:02:37;;;;;;;7.28;4.22;;;9.20;99.90;;;;;;5119561;27;20490;-80
2023/03/19 04:05:03;;;;;;;5.57;3.65;;;9.20;99.90;;;;;;5155042;27;20051;-79
2023/03/19 04:07:28;;;;;;;4.82;3.80;;;9.20;99.90;;;;;;5155011;27;20039;-80
2023/03/19 04:09:57;;;;;;;5.28;3.95;;;9.20;99.90;;;;;;5136500;27;20043;-79
2023/03/19 04:12:22;;;;;;;4.72;3.50;;;9.20;99.90;;;;;;5154790;27;20045;-78
2023/03/19 04:14:48;;;;;;;5.90;3.83;;;9.20;99.90;;;;;;5155061;27;20039;-79
2023/03/19 04:17:14;;;;;;;5.60;4.07;;;9.60;99.90;;;;;;5154877;27;20039;-77
2023/03/19 04:19:39;;;;;;;5.05;3.53;;;9.70;99.90;;;;;;5154627;27;20095;-78
2023/03/19 04:22:07;;;;;;;6.22;3.58;;;9.50;99.90;;;;;;5154822;27;20123;-78
2023/03/19 04:24:32;;;;;;;5.72;4.28;;;9.20;99.90;;;;;;5154650;27;20073;-78
2023/03/19 04:26:58;;;;;;;5.13;3.47;;;9.30;99.90;;;;;;5154737;27;20080;-79
2023/03/19 04:29:24;;;;;;;5.13;3.25;;;9.30;99.90;;;;;;5154826;27;20046;-78
2023/03/19 04:31:50;;;;;;;5.38;3.83;;;9.30;99.90;;;;;;5136148;27;20038;-80
2023/03/19 04:34:16;;;;;;;6.03;3.80;;;9.40;99.90;;;;;;5154420;27;20050;-78
2023/03/19 04:36:42;;;;;;;6.47;4.00;;;9.30;99.90;;;;;;5154857;27;20038;-79
2023/03/19 04:39:08;;;;;;;8.32;4.03;;;9.80;99.90;;;;;;5155498;27;20047;-80
2023/03/19 04:41:34;;;;;;;4.43;3.83;;;9.40;99.90;;;;;;5158564;27;20097;-79
2023/03/19 04:44:00;;;;;;;7.57;4.25;;;9.40;99.90;;;;;;5158433;27;20486;-79
2023/03/19 04:46:26;;;;;;;6.10;4.43;;;9.60;99.90;;;;;;5158472;27;20043;-81
2023/03/19 04:48:52;;;;;;;7.47;4.38;;;10.20;99.90;;;;;;5139605;27;20793;-80
2023/03/19 04:51:20;;;;;;;6.72;4.75;;;9.50;99.90;;;;;;5158097;27;20525;-80
2023/03/19 04:53:46;;;;;;;5.28;4.10;;;9.40;99.90;;;;;;5158192;27;20139;-79
2023/03/19 04:56:15;;;;;;;7.40;4.57;;;9.50;99.90;;;;;;5158362;27;20050;-79
2023/03/19 04:58:41;;;;;;;7.25;4.45;;;10.00;99.90;;;;;;5139583;27;20460;-80
2023/03/19 05:01:06;;;;;;;8.95;4.47;;;9.60;99.90;;;;;;5158112;27;20410;-80
2023/03/19 05:03:32;;;;;;;8.07;4.32;;;9.40;99.90;;;;;;5139558;27;20043;-79
2023/03/19 05:05:58;;;;;;;7.95;4.20;;;9.40;99.90;;;;;;5158059;27;20043;-79
2023/03/19 05:08:24;;;;;;;5.75;4.25;;;9.40;99.90;;;;;;5158004;27;20054;-80
2023/03/19 05:10:49;;;;;;;6.28;4.13;;;9.40;99.90;;;;;;5157638;27;20524;-78
2023/03/19 05:13:15;;;;;;;7.82;4.75;;;9.40;99.90;;;;;;5158001;27;20034;-80
2023/03/19 05:15:42;;;;;;;7.13;4.22;;;9.60;99.90;;;;;;5157916;27;20451;-79
2023/03/19 05:18:08;;;;;;;6.40;4.90;;;9.40;99.90;;;;;;5157352;27;20053;-80
2023/03/19 05:20:34;;;;;;;6.00;4.35;;;9.40;99.90;;;;;;5157663;27;20047;-80
2023/03/19 05:23:00;;;;;;;7.83;4.70;;;9.30;99.90;;;;;;5139242;27;20077;-79
2023/03/19 05:25:26;;;;;;;6.60;4.60;;;9.40;99.90;;;;;;5157623;27;20361;-80
2023/03/19 05:27:51;;;;;;;6.18;4.45;;;9.70;99.90;;;;;;5157839;27;20505;-80
2023/03/19 05:30:17;;;;;;;6.53;4.18;;;9.30;99.90;;;;;;5157510;27;20050;-79
2023/03/19 05:32:45;;;;;;;7.22;4.57;;;9.80;99.90;;;;;;5138972;27;20126;-80
2023/03/19 05:35:11;;;;;;;6.88;4.88;;;9.20;99.90;;;;;;5139140;27;20059;-80
2023/03/19 05:37:37;;;;;;;7.07;4.63;;;9.20;99.90;;;;;;5139217;27;20049;-80
2023/03/19 05:40:04;;;;;;;5.78;4.05;;;9.30;99.90;;;;;;5121813;27;20474;-81
2023/03/19 05:42:29;;;;;;;7.60;4.78;;;9.20;99.90;;;;;;5157262;27;20087;-78
2023/03/19 05:44:55;;;;;;;5.60;4.65;;;9.20;99.90;;;;;;5138774;27;20039;-79
2023/03/19 05:47:21;;;;;;;6.97;5.07;;;9.20;99.90;;;;;;5157026;27;20045;-80
2023/03/19 05:49:46;;;;;;;6.65;4.85;;;9.20;99.90;;;;;;5156926;27;20439;-79
2023/03/19 05:52:12;;;;;;;6.82;5.03;;;9.30;99.90;;;;;;5155962;27;20047;-79
2023/03/19 05:54:38;;;;;;;8.68;5.25;;;9.30;99.90;;;;;;5156931;27;20505;-78
2023/03/19 05:57:03;;;;;;;9.30;5.13;;;9.60;99.90;;;;;;5121413;27;20074;-79
2023/03/19 05:59:29;;;;;;;7.72;5.00;;;9.40;99.90;;;;;;5156942;27;20047;-81
2023/03/19 06:01:55;;;;;;;7.25;5.03;;;9.40;99.90;;;;;;5138487;27;20038;-79
2023/03/19 06:04:20;;;;;;;8.65;5.07;;;9.60;99.90;;;;;;5138392;27;20035;-82
2023/03/19 06:06:46;;;;;;;7.78;5.00;;;9.40;99.90;;;;;;5157126;27;20047;-78
2023/03/19 06:09:12;;;;;;;8.35;4.93;;;9.30;99.90;;;;;;5138261;27;20061;-80
2023/03/19 06:11:39;;;;;;;7.25;4.88;;;9.60;99.90;;;;;;5156749;27;20049;-79
2023/03/19 06:14:05;;;;;;;;;;;9.40;99.90;;;;;;5156964;27;20043;-80
2023/03/19 06:16:31;;;;;;;7.57;5.22;;;9.20;99.90;;;;;;5156593;27;19926;-80
2023/03/19 06:18:57;;;;;;;7.95;4.70;;;9.40;99.90;;;;;;5156600;27;20050;-80
2023/03/19 06:21:28;;;;;;;6.55;4.55;;;9.30;99.90;;;;;;5156482;27;20043;-81
2023/03/19 06:23:54;;;;;;;6.65;5.38;;;9.30;99.90;;;;;;5156558;27;20520;-80
2023/03/19 06:26:20;;;;;;;7.05;5.22;;;9.30;99.90;;;;;;5138136;27;20134;-79
2023/03/19 06:28:46;;;;;;;9.23;5.60;;;9.40;99.90;;;;;;5156531;27;20401;-80
2023/03/19 06:31:12;;;;;;;8.10;5.20;;;9.30;99.90;;;;;;5156327;27;20054;-80
2023/03/19 06:33:37;;;;;;;7.57;4.95;;;9.40;99.90;;;;;;5155970;27;20042;-81
2023/03/19 06:36:03;;;;;;;6.70;5.32;;;9.40;99.90;;;;;;5138080;27;20088;-81
2023/03/19 06:38:29;;;;;;;9.95;5.18;;;9.40;99.90;;;;;;5137972;27;20562;-81
2023/03/19 06:40:55;;;;;;;7.93;4.95;;;9.50;99.90;;;;;;5156271;27;20043;-80
2023/03/19 06:43:20;;;;;;;9.18;5.43;;;9.50;99.90;;;;;;5137944;27;20397;-79
2023/03/19 06:45:46;;;;;;;7.20;5.50;;;9.70;99.90;;;;;;5155969;27;20421;-81
2023/03/19 06:48:12;;;;;;;7.95;5.53;;;9.60;99.90;;;;;;5156153;27;20047;-81
2023/03/19 06:50:37;;;;;;;9.18;5.90;;;9.60;99.90;;;;;;5138074;27;20038;-79
2023/03/19 06:53:03;;;;;;;7.90;5.85;;;9.60;99.90;;;;;;5137386;27;20039;-78
2023/03/19 06:55:29;;;;;;;8.50;5.95;;;9.60;99.90;;;;;;5137259;27;20048;-81
2023/03/19 06:57:55;;;;;;;11.20;6.43;;;9.70;99.90;;;;;;5155756;27;20039;-81
2023/03/19 07:00:21;;;;;;;9.10;6.65;;;9.70;99.90;;;;;;5137254;27;20041;-78
2023/03/19 07:02:47;;;;;;;9.10;5.60;;;9.80;99.90;;;;;;5137432;27;20073;-78
2023/03/19 07:05:13;;;;;;;8.50;6.05;;;9.80;99.90;;;;;;5155739;27;20130;-80
2023/03/19 07:07:39;;;;;;;9.93;6.10;;;9.90;99.90;;;;;;5155632;27;20051;-78
2023/03/19 07:10:05;;;;;;;7.13;5.63;;;9.90;99.90;;;;;;5155932;27;20031;-78
2023/03/19 07:12:31;;;;;;;9.73;6.28;;;10.00;99.90;;;;;;5155646;27;20043;-81
2023/03/19 07:14:56;;;;;;;10.68;6.60;;;10.00;99.90;;;;;;5155547;27;20468;-79
2023/03/19 07:17:23;;;;;;;8.05;6.25;;;10.10;99.90;;;;;;5155931;27;20035;-79
2023/03/19 07:19:49;;;;;;;9.35;6.63;;;10.30;99.90;;;;;;5155403;27;20378;-79
2023/03/19 07:22:15;;;;;;;10.43;6.47;;;10.20;99.90;;;;;;5155480;27;20110;-79
2023/03/19 07:24:40;;;;;;;8.88;6.63;;;10.40;99.90;;;;;;5155692;27;20198;-79
2023/03/19 07:27:06;;;;;;;7.85;6.18;;;10.20;99.90;;;;;;5155659;27;20052;-80
2023/03/19 07:29:32;;;;;;;10.98;6.35;;;10.10;99.90;;;;;;5155268;27;20082;-81
2023/03/19 07:31:57;;;;;;;11.25;6.15;;;10.10;99.90;;;;;;5119908;27;20046;-78
2023/03/19 07:34:23;;;;;;;11.43;6.60;;;10.10;99.90;;;;;;5155334;27;20049;-80
2023/03/19 07:36:50;;;;;;;9.18;6.72;;;10.10;99.90;;;;;;5155317;27;20110;-79
2023/03/19 07:39:16;;;;;;;10.13;7.00;;;10.10;99.90;;;;;;5154941;27;20490;-79
2023/03/19 07:41:43;;;;;;;10.68;7.85;;;10.10;99.90;;;;;;5136943;27;20143;-81
2023/03/19 07:44:10;;;;;;;10.35;7.40;;;10.50;99.90;;;;;;5155556;27;20051;-79
2023/03/19 07:46:36;;;;;;;11.25;7.60;;;10.40;99.90;;;;;;5136328;27;20502;-78
2023/03/19 07:49:01;;;;;;;11.50;7.63;;;10.40;99.90;;;;;;5155284;27;20061;-79
2023/03/19 07:51:27;;;;;;;11.90;8.35;;;10.30;99.90;;;;;;5155592;27;20046;-79
2023/03/19 07:53:53;;;;;;;16.35;9.43;;;10.70;99.90;;;;;;5154981;27;20035;-76
2023/03/19 07:56:18;;;;;;;12.60;8.38;;;10.50;99.90;;;;;;5155196;27;20042;-75
2023/03/19 07:58:45;;;;;;;12.02;9.00;;;10.60;99.90;;;;;;5154971;27;20066;-77
2023/03/19 08:01:10;;;;;;;13.95;9.50;;;10.70;99.90;;;;;;5154985;27;20093;-78
2023/03/19 08:03:37;;;;;;;13.27;8.85;;;10.80;99.90;;;;;;5155066;27;20050;-76
2023/03/19 08:06:03;;;;;;;15.43;10.02;;;10.90;99.90;;;;;;5136626;27;20546;-85
2023/03/19 08:08:29;;;;;;;15.27;9.67;;;11.00;99.90;;;;;;5136660;27;20042;-78
2023/03/19 08:10:55;;;;;;;15.13;9.18;;;11.00;99.90;;;;;;5154764;27;20561;-79
2023/03/19 08:13:21;;;;;;;14.60;9.00;;;11.10;99.90;;;;;;5154882;27;20047;-80
2023/03/19 08:15:49;;;;;;;13.07;9.00;;;11.20;99.90;;;;;;5158594;27;20047;-81
2023/03/19 08:18:15;;;;;;;15.68;9.57;;;11.30;99.90;;;;;;5159397;27;20362;-80
2023/03/19 08:20:41;;;;;;;14.60;9.65;;;11.30;99.90;;;;;;5158885;27;20054;-76
2023/03/19 08:23:06;;;;;;;13.98;8.73;;;11.40;99.90;;;;;;5158730;27;20038;-77
2023/03/19 08:25:32;;;;;;;14.88;9.35;;;11.40;99.90;;;;;;5140045;27;20390;-76
2023/03/19 08:27:59;;;;;;;14.27;9.25;;;11.50;99.90;;;;;;5158444;27;20082;-76
2023/03/19 08:30:25;;;;;;;13.60;8.88;;;11.50;99.90;;;;;;5158623;27;20053;-75
2023/03/19 08:32:50;;;;;;;14.07;9.38;;;11.60;99.90;;;;;;5158563;27;20042;-76
2023/03/19 08:35:17;;;;;;;13.05;9.13;;;11.60;99.90;;;;;;5158617;27;20034;-77
2023/03/19 08:37:43;;;;;;;;;;;11.60;99.90;;;;;;5158934;27;20470;-78
2023/03/19 08:40:09;;;;;;;15.10;9.02;;;11.60;99.90;;;;;;5158691;27;20014;-76
2023/03/19 08:42:37;;;;;;;13.43;8.67;;;11.70;99.90;;;;;;5158222;27;20043;-79
2023/03/19 08:45:03;;;;;;;12.48;8.48;;;11.80;99.90;;;;;;5158348;27;20287;-82
2023/03/19 08:47:29;;;;;;;13.70;8.38;;;11.80;99.90;;;;;;5123061;27;20406;-84
2023/03/19 08:49:54;;;;;;;11.18;8.18;;;11.90;99.90;;;;;;5123508;27;20047;-78
2023/03/19 08:52:20;;;;;;;13.50;8.27;;;11.90;99.90;;;;;;5158417;27;20051;-79
2023/03/19 08:54:46;;;;;;;11.57;7.85;;;11.90;99.90;;;;;;5158327;27;20491;-79
2023/03/19 08:57:11;;;;;;;11.18;8.63;;;11.90;99.90;;;;;;5158230;27;20390;-81
2023/03/19 08:59:37;;;;;;;15.25;9.23;;;12.00;99.90;;;;;;5158085;27;20038;-80
2023/03/19 09:02:02;;;;;;;13.45;8.43;;;12.00;99.90;;;;;;5155774;27;20091;-80
2023/03/19 09:04:28;;;;;;;11.65;7.75;;;12.00;99.90;;;;;;5156327;27;20100;-80
2023/03/19 09:06:54;;;;;;;13.63;7.80;;;12.00;99.90;;;;;;5157142;27;20474;-81
2023/03/19 09:09:21;;;;;;;10.90;7.50;;;12.10;99.90;;;;;;5138613;27;20435;-81
2023/03/19 09:11:48;;;;;;;14.55;9.07;;;12.20;99.90;;;;;;5121607;27;20090;-80
2023/03/19 09:14:15;;;;;;;10.97;7.70;;;12.50;99.90;;;;;;5157013;27;20031;-80
2023/03/19 09:16:42;;;;;;;9.70;7.13;;;12.40;99.90;;;;;;5157612;27;20398;-80
2023/03/19 09:19:08;;;;;;;9.02;6.75;;;12.70;99.90;;;;;;5158103;27;20043;-80
2023/03/19 09:21:35;;;;;;;11.57;6.82;;;13.00;99.90;;;;;;5157655;27;20049;-81
2023/03/19 09:24:02;;;;;;;10.73;7.57;;;13.10;99.90;;;;;;5157794;27;20045;-80
2023/03/19 09:26:27;;;;;;;11.70;7.53;;;13.30;99.90;;;;;;5157384;27;20050;-80
2023/03/19 09:28:53;;;;;;;12.45;7.55;;;13.30;99.90;;;;;;5157520;27;20034;-79
2023/03/19 09:31:19;;;;;;;9.95;7.55;;;13.20;99.90;;;;;;5157923;27;20047;-79
2023/03/19 09:33:44;;;;;;;10.45;7.35;;;13.00;99.90;;;;;;5138893;27;20533;-79
2023/03/19 09:36:10;;;;;;;11.50;7.78;;;12.90;99.90;;;;;;5157125;27;20043;-79
2023/03/19 09:38:36;;;;;;;11.70;7.00;;;12.70;99.90;;;;;;5157694;27;20089;-79
2023/03/19 09:41:48;;;;;;;9.55;6.95;;;12.70;99.90;;;;;;5157394;27;20070;-79
2023/03/19 09:44:20;;;;;;;13.30;7.88;;;12.70;99.90;;;;;;5110850;27;20371;-80
2023/03/19 09:46:56;;;;;;;10.15;7.15;;;12.70;99.90;;;;;;5139068;27;20115;-79
2023/03/19 09:49:32;;;;;;;10.85;7.63;;;12.60;99.90;;;;;;5157302;27;20077;-79
2023/03/19 09:52:02;;;;;;;11.02;7.93;;;12.60;99.90;;;;;;5156682;27;20096;-79
2023/03/19 09:54:36;;;;;;;10.07;7.85;;;13.00;99.90;;;;;;5156977;27;20051;-78
2023/03/19 09:57:02;;;;;;;11.73;7.78;;;12.60;99.90;;;;;;5157385;27;20047;-80
2023/03/19 09:59:28;;;;;;;10.77;7.53;;;12.70;99.90;;;;;;5157229;27;20038;-80
2023/03/19 10:02:03;;;;;;;11.85;7.57;;;12.80;99.90;;;;;;5157081;27;20474;-79
2023/03/19 10:04:50;;;;;;;11.00;7.35;;;12.80;99.90;;;;;;5156834;27;20401;-79
2023/03/19 10:07:22;;;;;;;10.77;7.50;;;13.00;99.90;;;;;;5157210;27;20046;-79
2023/03/19 10:10:02;;;;;;;10.63;7.72;;;12.90;99.90;;;;;;5157058;27;20291;-79
2023/03/19 10:12:27;;;;;;;14.93;7.72;;;13.10;99.90;;;;;;5156435;27;20454;-79
2023/03/19 10:15:08;;;;;;;12.27;7.80;;;13.30;99.90;;;;;;5156671;27;20070;-79
2023/03/19 10:17:40;;;;;;;11.07;7.30;;;13.40;99.90;;;;;;5157122;27;20409;-80
2023/03/19 10:20:19;;;;;;;10.40;6.82;;;13.40;99.90;;;;;;5138484;27;20034;-80
2023/03/19 10:22:54;;;;;;;8.75;6.25;;;13.40;99.90;;;;;;5156460;27;20079;-79
2023/03/19 10:25:28;;;;;;;8.88;6.38;;;13.50;99.90;;;;;;5156429;27;20091;-79
2023/03/19 10:28:00;;;;;;;8.38;6.32;;;13.60;99.90;;;;;;5156473;27;20542;-79
2023/03/19 10:30:28;;;;;;;8.60;6.05;;;13.70;99.90;;;;;;5156115;27;20486;-79
2023/03/19 10:33:16;;;;;;;9.90;6.45;;;13.80;99.90;;;;;;5156378;27;20080;-80
2023/03/19 10:35:50;;;;;;;10.38;6.22;;;13.90;99.90;;;;;;5156298;27;20431;-80
2023/03/19 10:38:21;;;;;;;10.07;6.47;;;13.80;99.90;;;;;;5155623;27;20039;-78
2023/03/19 10:41:14;;;;;;;11.98;7.18;;;13.80;99.90;;;;;;5156175;27;20126;-80
2023/03/19 10:43:41;;;;;;;9.05;6.53;;;13.70;99.90;;;;;;5142257;27;20051;-79
2023/03/19 10:46:12;;;;;;;8.70;6.45;;;13.70;99.90;;;;;;5156020;27;20051;-80
2023/03/19 10:48:43;;;;;;;12.20;6.97;;;13.60;99.90;;;;;;5156100;27;20428;-80
2023/03/19 10:51:17;;;;;;;9.43;6.32;;;13.70;99.90;;;;;;5156156;27;20054;-79
2023/03/19 10:53:43;;;;;;;10.77;7.72;;;13.80;99.90;;;;;;5155837;27;20169;-79
2023/03/19 10:56:23;;;;;;;10.53;6.10;;;13.90;99.90;;;;;;5155825;27;20089;-79
2023/03/19 10:59:02;;;;;;;10.02;6.68;;;13.90;99.90;;;;;;5155732;27;20200;-79
2023/03/19 11:01:32;;;;;;;8.90;6.07;;;14.00;99.90;;;;;;5156207;27;20050;-80
2023/03/19 11:04:00;;;;;;;10.35;6.55;;;14.10;99.90;;;;;;5155775;27;20130;-79
2023/03/19 11:06:32;;;;;;;7.75;5.70;;;14.20;99.90;;;;;;5155733;27;20050;-79
2023/03/19 11:09:02;;;;;;;8.20;5.85;;;14.20;99.90;;;;;;5155763;27;20063;-79
2023/03/19 11:11:46;;;;;;;10.07;6.72;;;14.40;99.90;;;;;;5155319;27;20054;-79
2023/03/19 11:14:28;;;;;;;9.30;6.55;;;14.30;99.90;;;;;;5155811;27;20045;-78
2023/03/19 11:17:02;;;;;;;9.35;6.43;;;14.30;99.90;;;;;;5137332;27;20435;-79
2023/03/19 11:19:31;;;;;;;14.80;7.32;;;14.30;99.90;;;;;;5137046;27;20054;-80
2023/03/19 11:22:06;;;;;;;9.88;6.80;;;14.20;99.90;;;;;;5155406;27;20051;-78
2023/03/19 11:24:35;;;;;;;9.80;6.40;;;14.20;99.90;;;;;;5155543;27;20047;-79
2023/03/19 11:27:02;;;;;;;9.82;6.68;;;14.30;99.90;;;;;;5154981;27;20397;-79
2023/03/19 11:29:31;;;;;;;9.20;6.68;;;14.40;99.90;;;;;;5155217;27;20126;-82
2023/03/19 11:32:35;;;;;;;11.32;6.72;;;14.50;99.90;;;;;;5155371;27;20129;-80
2023/03/19 11:35:18;;;;;;;9.85;6.75;;;14.50;99.90;;;;;;5119215;27;20062;-79
2023/03/19 11:37:53;;;;;;;9.82;6.80;;;14.70;99.90;;;;;;5155250;27;20038;-80
2023/03/19 11:40:33;;;;;;;9.93;7.38;;;14.70;99.90;;;;;;5155216;27;20107;-85
2023/03/19 11:43:37;;;;;;;9.82;7.20;;;14.70;99.90;;;;;;5120294;27;20045;-86
2023/03/19 11:46:22;;;;;;;10.93;7.47;;;14.70;99.90;;;;;;5120062;27;20051;-85
2023/03/19 11:49:17;;;;;;;10.55;7.45;;;14.60;99.90;;;;;;5136867;27;20049;-79
2023/03/19 11:51:42;;;;;;;11.02;7.82;;;14.50;99.90;;;;;;5159849;27;20063;-81
2023/03/19 11:54:14;;;;;;;14.57;7.17;;;14.70;99.90;;;;;;5159345;27;20568;-81
2023/03/19 11:56:41;;;;;;;13.40;7.80;;;14.90;99.90;;;;;;5159376;27;20178;-80
2023/03/19 11:59:25;;;;;;;;;;;15.10;99.90;;;;;;5159668;27;20109;-80
2023/03/19 12:01:53;;;;;;;11.05;7.30;;;15.20;99.90;;;;;;5159303;27;19927;-78
2023/03/19 12:04:25;;;;;;;9.90;7.35;;;15.30;99.90;;;;;;5158963;27;20084;-79
2023/03/19 12:06:59;;;;;;;11.43;7.78;;;15.50;99.90;;;;;;5158843;27;20545;-78
2023/03/19 12:09:39;;;;;;;10.90;7.15;;;15.50;99.90;;;;;;5140745;27;20045;-79
2023/03/19 12:12:23;;;;;;;12.85;7.88;;;15.50;99.90;;;;;;5158870;27;20508;-83
2023/03/19 12:15:03;;;;;;;11.95;7.97;;;15.50;99.90;;;;;;5158998;27;20054;-79
2023/03/19 12:17:58;;;;;;;11.25;8.00;;;15.60;99.90;;;;;;5158830;27;20524;-80
2023/03/19 12:20:29;;;;;;;10.98;8.20;;;15.60;99.90;;;;;;5158803;27;20113;-80
2023/03/19 12:23:10;;;;;;;12.68;7.68;;;15.50;99.90;;;;;;5158776;27;20371;-79
2023/03/19 12:26:03;;;;;;;10.85;8.07;;;15.60;99.90;;;;;;5159198;27;20125;-81
2023/03/19 12:28:34;;;;;;;13.07;7.45;;;15.50;99.90;;;;;;5158739;27;20098;-80
2023/03/19 12:31:09;;;;;;;11.63;7.75;;;15.60;99.90;;;;;;5147128;27;20055;-80
2023/03/19 12:33:34;;;;;;;13.48;7.10;;;15.70;99.90;;;;;;5145896;27;20562;-79
2023/03/19 12:36:03;;;;;;;10.57;7.33;;;15.80;99.90;;;;;;5145048;27;20134;-79
2023/03/19 12:38:42;;;;;;;12.50;6.97;;;15.60;99.90;;;;;;5145536;27;20466;-79
2023/03/19 12:41:18;;;;;;;14.15;7.63;;;15.70;99.90;;;;;;5146551;27;20486;-80
2023/03/19 12:43:57;;;;;;;12.75;7.25;;;15.80;99.90;;;;;;5145915;27;20046;-80
2023/03/19 12:46:32;;;;;;;13.35;7.28;;;16.00;99.90;;;;;;5145497;27;20138;-80
2023/03/19 12:49:21;;;;;;;12.50;7.78;;;16.30;99.90;;;;;;5146598;27;20044;-80
2023/03/19 12:51:55;;;;;;;13.48;7.72;;;16.20;99.90;;;;;;5141772;27;20055;-80
2023/03/19 12:54:27;;;;;;;13.15;8.13;;;16.10;99.90;;;;;;5148142;27;20050;-79